UAE370 VTBS-VVDN
Flight info
| Callsign | UAE370 |
|---|---|
| Flight time | N/A |
| Altitude | 37000 |
| Route | SELKA1R SELKA DCT BUTRA A1 PAPRA PAPRA2D |
| Aircraft | B77W/H-SDE1E2E3FGHIJ2J3J4J5M1RWXY/LB1D1 |
Departure
| Time | N/A |
|---|---|
| Airport | Suvarnabhumi Airport (VTBS) |
Arrival
| Time | 2026-04-19 04:17 |
|---|---|
| Airport | Da Nang International Airport (VVDN) |
| Time | Latitude | Longitude | Altitude | Speed | Heading |
|---|---|---|---|---|---|
| 2026-04-19 03:42 | 15.17334 | 104.73298 | 34946 ft | 489 kts | 72° |
| 2026-04-19 03:42 | 15.18298 | 104.76669 | 34936 ft | 489 kts | 72° |
| 2026-04-19 03:43 | 15.20226 | 104.83427 | 34938 ft | 490 kts | 72° |
| 2026-04-19 03:43 | 15.21502 | 104.87905 | 34936 ft | 489 kts | 72° |
| 2026-04-19 03:44 | 15.24079 | 104.96950 | 34945 ft | 490 kts | 72° |
| 2026-04-19 03:44 | 15.25960 | 105.03564 | 34932 ft | 491 kts | 72° |
| 2026-04-19 03:45 | 15.27888 | 105.10357 | 34941 ft | 492 kts | 72° |
| 2026-04-19 03:45 | 15.29821 | 105.17171 | 34940 ft | 492 kts | 72° |
| 2026-04-19 03:46 | 15.31751 | 105.23983 | 34926 ft | 493 kts | 72° |
| 2026-04-19 03:46 | 15.33679 | 105.30796 | 34946 ft | 493 kts | 72° |
| 2026-04-19 03:47 | 15.35606 | 105.37615 | 34940 ft | 493 kts | 72° |
| 2026-04-19 03:47 | 15.37533 | 105.44444 | 34938 ft | 494 kts | 72° |
| 2026-04-19 03:48 | 15.39458 | 105.51277 | 34938 ft | 494 kts | 72° |
| 2026-04-19 03:48 | 15.41385 | 105.58120 | 34936 ft | 495 kts | 72° |
| 2026-04-19 03:49 | 15.43093 | 105.65035 | 34946 ft | 496 kts | 75° |
| 2026-04-19 03:49 | 15.44621 | 105.72013 | 34936 ft | 497 kts | 76° |
| 2026-04-19 03:50 | 15.46144 | 105.79002 | 34936 ft | 497 kts | 75° |
| 2026-04-19 03:50 | 15.47681 | 105.85957 | 34936 ft | 498 kts | 75° |
| 2026-04-19 03:51 | 15.49239 | 105.92958 | 34951 ft | 498 kts | 75° |
| 2026-04-19 03:51 | 15.50797 | 105.99962 | 34940 ft | 498 kts | 75° |
| 2026-04-19 03:52 | 15.52320 | 106.06829 | 34946 ft | 498 kts | 75° |
| 2026-04-19 03:52 | 15.53868 | 106.13825 | 34947 ft | 498 kts | 75° |
| 2026-04-19 03:53 | 15.55418 | 106.20835 | 34249 ft | 505 kts | 76° |
| 2026-04-19 03:53 | 15.56200 | 106.24376 | 33633 ft | 501 kts | 76° |
| 2026-04-19 03:53 | 15.56974 | 106.27887 | 33031 ft | 497 kts | 76° |
| 2026-04-19 03:53 | 15.57738 | 106.31362 | 32496 ft | 491 kts | 76° |
| 2026-04-19 03:54 | 15.58495 | 106.34803 | 31958 ft | 487 kts | 76° |
| 2026-04-19 03:54 | 15.59244 | 106.38209 | 31441 ft | 482 kts | 76° |
| 2026-04-19 03:54 | 15.59985 | 106.41578 | 30935 ft | 477 kts | 76° |
| 2026-04-19 03:54 | 15.60719 | 106.44919 | 30414 ft | 473 kts | 76° |
| 2026-04-19 03:55 | 15.61437 | 106.48189 | 29902 ft | 469 kts | 76° |
| 2026-04-19 03:55 | 15.62158 | 106.51474 | 29323 ft | 465 kts | 76° |
| 2026-04-19 03:55 | 15.62870 | 106.54723 | 28781 ft | 460 kts | 76° |
| 2026-04-19 03:55 | 15.63575 | 106.57942 | 28251 ft | 455 kts | 76° |
| 2026-04-19 03:56 | 15.64273 | 106.61128 | 27751 ft | 450 kts | 76° |
| 2026-04-19 03:56 | 15.64960 | 106.64274 | 27261 ft | 445 kts | 76° |
| 2026-04-19 03:56 | 15.65640 | 106.67385 | 26771 ft | 440 kts | 76° |
| 2026-04-19 03:56 | 15.66314 | 106.70472 | 26291 ft | 436 kts | 76° |
| 2026-04-19 03:57 | 15.66981 | 106.73526 | 25818 ft | 432 kts | 76° |
| 2026-04-19 03:57 | 15.67642 | 106.76557 | 25331 ft | 429 kts | 76° |
| 2026-04-19 03:57 | 15.68298 | 106.79562 | 24865 ft | 426 kts | 76° |
| 2026-04-19 03:57 | 15.68948 | 106.82549 | 24383 ft | 423 kts | 76° |
| 2026-04-19 03:58 | 15.69598 | 106.85531 | 23907 ft | 421 kts | 76° |
| 2026-04-19 03:58 | 15.70240 | 106.88484 | 23415 ft | 419 kts | 76° |
| 2026-04-19 03:58 | 15.70879 | 106.91421 | 22900 ft | 416 kts | 76° |
| 2026-04-19 03:58 | 15.71511 | 106.94333 | 22406 ft | 412 kts | 76° |
| 2026-04-19 03:59 | 15.72129 | 106.97180 | 21946 ft | 408 kts | 76° |
| 2026-04-19 03:59 | 15.72745 | 107.00022 | 21491 ft | 404 kts | 76° |
| 2026-04-19 03:59 | 15.73339 | 107.02765 | 21049 ft | 401 kts | 76° |
| 2026-04-19 03:59 | 15.73949 | 107.05578 | 20610 ft | 398 kts | 76° |
| 2026-04-19 04:00 | 15.74553 | 107.08368 | 20166 ft | 395 kts | 76° |
| 2026-04-19 04:00 | 15.75154 | 107.11142 | 19723 ft | 392 kts | 76° |
| 2026-04-19 04:00 | 15.75750 | 107.13898 | 19273 ft | 390 kts | 76° |
| 2026-04-19 04:00 | 15.76343 | 107.16644 | 18818 ft | 389 kts | 77° |
| 2026-04-19 04:01 | 15.76796 | 107.19400 | 18350 ft | 386 kts | 86° |
| 2026-04-19 04:01 | 15.76650 | 107.24969 | 17398 ft | 381 kts | 92° |
| 2026-04-19 04:01 | 15.76501 | 107.27673 | 16950 ft | 378 kts | 92° |
| 2026-04-19 04:02 | 15.76363 | 107.30388 | 16500 ft | 375 kts | 92° |
| 2026-04-19 04:02 | 15.76244 | 107.33082 | 16057 ft | 372 kts | 92° |
| 2026-04-19 04:02 | 15.76139 | 107.35757 | 15624 ft | 370 kts | 91° |
| 2026-04-19 04:02 | 15.76043 | 107.38414 | 15190 ft | 367 kts | 91° |
| 2026-04-19 04:03 | 15.75952 | 107.41053 | 14766 ft | 365 kts | 91° |
| 2026-04-19 04:03 | 15.75863 | 107.43677 | 14322 ft | 363 kts | 91° |
| 2026-04-19 04:03 | 15.75775 | 107.46287 | 13897 ft | 361 kts | 91° |
| 2026-04-19 04:03 | 15.75688 | 107.48885 | 13423 ft | 359 kts | 91° |
| 2026-04-19 04:04 | 15.75601 | 107.51464 | 12975 ft | 356 kts | 91° |
| 2026-04-19 04:04 | 15.75515 | 107.54024 | 12545 ft | 353 kts | 91° |
| 2026-04-19 04:04 | 15.75429 | 107.56566 | 12116 ft | 350 kts | 91° |
| 2026-04-19 04:04 | 15.75344 | 107.59082 | 11700 ft | 347 kts | 91° |
| 2026-04-19 04:05 | 15.75259 | 107.61576 | 11289 ft | 345 kts | 91° |
| 2026-04-19 04:05 | 15.75173 | 107.64055 | 10875 ft | 342 kts | 92° |
| 2026-04-19 04:05 | 15.75089 | 107.66512 | 10509 ft | 338 kts | 92° |
| 2026-04-19 04:05 | 15.75006 | 107.68914 | 10345 ft | 328 kts | 92° |
| 2026-04-19 04:06 | 15.74926 | 107.71210 | 10199 ft | 311 kts | 92° |
| 2026-04-19 04:06 | 15.74901 | 107.73412 | 10066 ft | 297 kts | 84° |
| 2026-04-19 04:06 | 15.75368 | 107.75446 | 9909 ft | 285 kts | 73° |
| 2026-04-19 04:06 | 15.75957 | 107.77408 | 9567 ft | 284 kts | 73° |
| 2026-04-19 04:07 | 15.76541 | 107.79359 | 9249 ft | 282 kts | 73° |
| 2026-04-19 04:07 | 15.77114 | 107.81301 | 8939 ft | 281 kts | 73° |
| 2026-04-19 04:07 | 15.77679 | 107.83238 | 8631 ft | 280 kts | 73° |
| 2026-04-19 04:07 | 15.78239 | 107.85170 | 8320 ft | 278 kts | 74° |
| 2026-04-19 04:08 | 15.78790 | 107.87088 | 8022 ft | 277 kts | 74° |
| 2026-04-19 04:08 | 15.79336 | 107.88995 | 7722 ft | 275 kts | 74° |
| 2026-04-19 04:08 | 15.79879 | 107.90894 | 7424 ft | 274 kts | 74° |
| 2026-04-19 04:08 | 15.80414 | 107.92767 | 7125 ft | 274 kts | 74° |
| 2026-04-19 04:09 | 15.80955 | 107.94660 | 6800 ft | 273 kts | 74° |
| 2026-04-19 04:09 | 15.81494 | 107.96550 | 6500 ft | 273 kts | 75° |
| 2026-04-19 04:09 | 15.81857 | 107.97828 | 6280 ft | 273 kts | 75° |
| 2026-04-19 04:09 | 15.82031 | 107.98439 | 6182 ft | 273 kts | 75° |
| 2026-04-19 04:10 | 15.82394 | 107.99714 | 5965 ft | 273 kts | 74° |
| 2026-04-19 04:10 | 15.84418 | 108.06815 | 5105 ft | 242 kts | 74° |
| 2026-04-19 04:11 | 15.84731 | 108.07913 | 5038 ft | 237 kts | 74° |
| 2026-04-19 04:11 | 15.85496 | 108.10615 | 4828 ft | 236 kts | 76° |
| 2026-04-19 04:11 | 15.85814 | 108.12293 | 4548 ft | 236 kts | 82° |
| 2026-04-19 04:11 | 15.86058 | 108.13959 | 4271 ft | 228 kts | 82° |
| 2026-04-19 04:12 | 15.86299 | 108.15567 | 4071 ft | 226 kts | 82° |
| 2026-04-19 04:12 | 15.86546 | 108.17168 | 3742 ft | 221 kts | 81° |
| 2026-04-19 04:12 | 15.86791 | 108.18726 | 3478 ft | 217 kts | 81° |
| 2026-04-19 04:12 | 15.87078 | 108.20261 | 3204 ft | 217 kts | 70° |
| 2026-04-19 04:13 | 15.87973 | 108.21477 | 2988 ft | 212 kts | 34° |
| 2026-04-19 04:13 | 15.89312 | 108.21938 | 2693 ft | 198 kts | 5° |
| 2026-04-19 04:13 | 15.90636 | 108.21848 | 2431 ft | 183 kts | 353° |
| 2026-04-19 04:13 | 15.91894 | 108.21664 | 2236 ft | 187 kts | 353° |
| 2026-04-19 04:14 | 15.93197 | 108.21473 | 1972 ft | 190 kts | 354° |
| 2026-04-19 04:14 | 15.94481 | 108.21286 | 1737 ft | 180 kts | 354° |
| 2026-04-19 04:14 | 15.95684 | 108.21112 | 1530 ft | 167 kts | 353° |
| 2026-04-19 04:14 | 15.96788 | 108.20945 | 1459 ft | 161 kts | 355° |
| 2026-04-19 04:15 | 15.97903 | 108.20769 | 1225 ft | 164 kts | 354° |
| 2026-04-19 04:15 | 15.99008 | 108.20607 | 890 ft | 151 kts | 352° |
| 2026-04-19 04:15 | 16.00032 | 108.20459 | 650 ft | 152 kts | 353° |
| 2026-04-19 04:15 | 16.01081 | 108.20315 | 417 ft | 152 kts | 353° |
| 2026-04-19 04:16 | 16.02134 | 108.20148 | 245 ft | 156 kts | 356° |
| 2026-04-19 04:16 | 16.03224 | 108.20005 | 46 ft | 156 kts | 355° |
| 2026-04-19 04:16 | 16.04177 | 108.19870 | 37 ft | 114 kts | 352° |
| 2026-04-19 04:16 | 16.04781 | 108.19783 | 40 ft | 61 kts | 352° |
| 2026-04-19 04:17 | 16.05176 | 108.19725 | 38 ft | 51 kts | 352° |
| 2026-04-19 04:17 | 16.05486 | 108.19680 | 36 ft | 35 kts | 352° |
| 2026-04-19 04:17 | 16.05690 | 108.19664 | 36 ft | 17 kts | 20° |
| 2026-04-19 04:17 | 16.05728 | 108.19750 | 37 ft | 14 kts | 82° |
| 2026-04-19 04:18 | 16.05742 | 108.19861 | 37 ft | 15 kts | 83° |
| 2026-04-19 04:18 | 16.05752 | 108.19928 | 38 ft | 7 kts | 81° |
| 2026-04-19 04:18 | 16.05781 | 108.19970 | 39 ft | 8 kts | 25° |
| 2026-04-19 04:18 | 16.05846 | 108.19977 | 39 ft | 10 kts | 15° |
| 2026-04-19 04:19 | 16.05867 | 108.20005 | 39 ft | 4 kts | 74° |
| 2026-04-19 04:19 | 16.05871 | 108.20034 | 39 ft | 3 kts | 81° |
| 2026-04-19 04:19 | 16.05872 | 108.20041 | 39 ft | 0 kts | 81° |